Accueil
METAR-TAF:

METAR-TAF

Aéroports :

Malé, Maldives

Aéroport international de Malé

latitude: 04-12N, longitude: 073-32E, altitude: 2 m

Observation

Le bulletin a été fait il y a 1 heure et 10 minutes, à 19:00 UTC
Vent 9 kt de est
Température 28°C
Humidité 74%
Pression 1010 hPa
Visibilité 10 km ou plus
Quelques nuages à une hauteur de 1800 ft

METAR: VRMM 231900Z 09009KT 9999 FEW018 28/23 Q1010 NOSIG

Heure: 01:10 (20:10 UTC)

Prévision

Le bulletin a été fait il y a 3 heures et 10 minutes, à 17:00 UTC
Prévision valable du 23 à 18 UTC au 24 à 24 UTC
Vent 12 kt de est/nord-est
Visibilité: 9000 m
Quelques nuages à une hauteur de 1800 ft

TAF: VRMM 231700Z 2318/2424 07012KT 9000 FEW018

Observations et prévisions météorologiques de plus de 4000 aéroports (messages METAR et TAF).

Les stations disponibles sont représentées par des disques jaunes et rouges sur la carte.

Passer la souris dessus pour voir le nom de la station.

Cliquer dessus pour voir les observations et prévisions météorologiques.

Pour changer de carte: cliquez sur les boutons verts avec une croix noire pour zoomer, sur le bouton vert avec un tiret pour effectuer un zoom arrière, ou sur les flèches vertes pour les cartes adjacentes.


METAR-TAF: